sensor_id;sensor_type;location;lat;lon;timestamp;temperature;humidity
7688;DHT22;30781;48.154;11.554;2022-08-01T00:01:12;23.60;59.20
7688;DHT22;30781;48.154;11.554;2022-08-01T00:03:39;23.60;59.10
7688;DHT22;30781;48.154;11.554;2022-08-01T00:06:06;23.60;59.10
7688;DHT22;30781;48.154;11.554;2022-08-01T00:08:33;23.60;59.20
7688;DHT22;30781;48.154;11.554;2022-08-01T00:11:02;23.50;59.10
7688;DHT22;30781;48.154;11.554;2022-08-01T00:13:29;23.50;59.30
7688;DHT22;30781;48.154;11.554;2022-08-01T00:15:56;23.50;59.40
7688;DHT22;30781;48.154;11.554;2022-08-01T00:18:23;23.50;59.50
7688;DHT22;30781;48.154;11.554;2022-08-01T00:20:50;23.50;59.70
7688;DHT22;30781;48.154;11.554;2022-08-01T00:23:17;23.40;60.50
7688;DHT22;30781;48.154;11.554;2022-08-01T00:25:44;23.30;59.60
7688;DHT22;30781;48.154;11.554;2022-08-01T00:28:13;23.30;59.60
7688;DHT22;30781;48.154;11.554;2022-08-01T00:30:40;23.30;59.90
7688;DHT22;30781;48.154;11.554;2022-08-01T00:33:07;23.20;60.00
7688;DHT22;30781;48.154;11.554;2022-08-01T00:35:34;23.20;60.10
7688;DHT22;30781;48.154;11.554;2022-08-01T00:38:01;23.20;60.20
7688;DHT22;30781;48.154;11.554;2022-08-01T00:40:28;23.10;60.40
7688;DHT22;30781;48.154;11.554;2022-08-01T00:42:55;23.00;60.40
7688;DHT22;30781;48.154;11.554;2022-08-01T00:45:24;23.00;60.70
7688;DHT22;30781;48.154;11.554;2022-08-01T00:47:51;22.90;60.70
7688;DHT22;30781;48.154;11.554;2022-08-01T00:50:18;22.90;61.10
7688;DHT22;30781;48.154;11.554;2022-08-01T00:52:45;22.80;61.10
7688;DHT22;30781;48.154;11.554;2022-08-01T00:55:12;22.70;61.10
7688;DHT22;30781;48.154;11.554;2022-08-01T00:57:40;22.70;61.40
7688;DHT22;30781;48.154;11.554;2022-08-01T01:00:08;22.60;61.40
7688;DHT22;30781;48.154;11.554;2022-08-01T01:02:36;22.60;61.80
7688;DHT22;30781;48.154;11.554;2022-08-01T01:05:04;22.60;61.80
7688;DHT22;30781;48.154;11.554;2022-08-01T01:07:36;22.50;61.90
7688;DHT22;30781;48.154;11.554;2022-08-01T01:10:14;22.50;62.10
7688;DHT22;30781;48.154;11.554;2022-08-01T01:12:47;22.50;62.10
7688;DHT22;30781;48.154;11.554;2022-08-01T01:15:17;22.40;62.00
7688;DHT22;30781;48.154;11.554;2022-08-01T01:17:51;22.40;62.00
7688;DHT22;30781;48.154;11.554;2022-08-01T01:20:21;22.40;62.30
7688;DHT22;30781;48.154;11.554;2022-08-01T01:23:24;22.30;62.50
7688;DHT22;30781;48.154;11.554;2022-08-01T01:26:23;22.30;62.50
7688;DHT22;30781;48.154;11.554;2022-08-01T01:29:00;22.20;62.50
7688;DHT22;30781;48.154;11.554;2022-08-01T01:31:30;22.10;62.70
7688;DHT22;30781;48.154;11.554;2022-08-01T01:33:59;22.10;62.70
7688;DHT22;30781;48.154;11.554;2022-08-01T01:36:27;22.10;62.80
7688;DHT22;30781;48.154;11.554;2022-08-01T01:38:55;22.00;62.90
7688;DHT22;30781;48.154;11.554;2022-08-01T01:41:23;22.00;63.00
7688;DHT22;30781;48.154;11.554;2022-08-01T01:43:52;22.00;63.10
7688;DHT22;30781;48.154;11.554;2022-08-01T01:46:23;22.00;63.30
7688;DHT22;30781;48.154;11.554;2022-08-01T01:48:54;21.90;63.20
7688;DHT22;30781;48.154;11.554;2022-08-01T01:51:23;21.90;63.20
7688;DHT22;30781;48.154;11.554;2022-08-01T01:53:53;21.90;63.40
7688;DHT22;30781;48.154;11.554;2022-08-01T01:56:22;21.80;63.40
7688;DHT22;30781;48.154;11.554;2022-08-01T01:58:52;21.80;63.30
7688;DHT22;30781;48.154;11.554;2022-08-01T02:01:22;21.80;63.30
7688;DHT22;30781;48.154;11.554;2022-08-01T02:03:51;21.80;63.50
7688;DHT22;30781;48.154;11.554;2022-08-01T02:06:20;21.80;63.40
7688;DHT22;30781;48.154;11.554;2022-08-01T02:08:48;21.80;63.40
7688;DHT22;30781;48.154;11.554;2022-08-01T02:11:15;21.80;63.30
7688;DHT22;30781;48.154;11.554;2022-08-01T02:13:53;21.80;63.00
7688;DHT22;30781;48.154;11.554;2022-08-01T02:16:26;21.90;63.00
7688;DHT22;30781;48.154;11.554;2022-08-01T02:18:54;21.90;62.90
7688;DHT22;30781;48.154;11.554;2022-08-01T02:21:27;21.90;62.80
7688;DHT22;30781;48.154;11.554;2022-08-01T02:23:57;21.90;62.90
7688;DHT22;30781;48.154;11.554;2022-08-01T02:26:27;22.00;62.80
7688;DHT22;30781;48.154;11.554;2022-08-01T02:28:59;22.00;62.40
7688;DHT22;30781;48.154;11.554;2022-08-01T02:31:32;22.00;62.40
7688;DHT22;30781;48.154;11.554;2022-08-01T02:34:04;21.90;62.40
7688;DHT22;30781;48.154;11.554;2022-08-01T02:36:34;21.90;62.30
7688;DHT22;30781;48.154;11.554;2022-08-01T02:39:08;21.90;62.60
7688;DHT22;30781;48.154;11.554;2022-08-01T02:41:39;21.90;62.60
7688;DHT22;30781;48.154;11.554;2022-08-01T02:44:09;21.90;62.60
7688;DHT22;30781;48.154;11.554;2022-08-01T02:46:40;21.90;62.60
7688;DHT22;30781;48.154;11.554;2022-08-01T02:49:10;21.80;62.70
7688;DHT22;30781;48.154;11.554;2022-08-01T02:51:39;21.80;62.70
7688;DHT22;30781;48.154;11.554;2022-08-01T02:54:08;21.80;62.70
7688;DHT22;30781;48.154;11.554;2022-08-01T02:56:37;21.80;62.80
7688;DHT22;30781;48.154;11.554;2022-08-01T02:59:08;21.80;62.80
7688;DHT22;30781;48.154;11.554;2022-08-01T03:01:39;21.90;62.70
7688;DHT22;30781;48.154;11.554;2022-08-01T03:04:07;21.80;62.60
7688;DHT22;30781;48.154;11.554;2022-08-01T03:06:35;21.80;62.50
7688;DHT22;30781;48.154;11.554;2022-08-01T03:09:04;21.80;62.40
7688;DHT22;30781;48.154;11.554;2022-08-01T03:11:35;21.80;62.50
7688;DHT22;30781;48.154;11.554;2022-08-01T03:14:06;21.80;62.60
7688;DHT22;30781;48.154;11.554;2022-08-01T03:16:39;21.70;62.60
7688;DHT22;30781;48.154;11.554;2022-08-01T03:19:11;21.60;62.60
7688;DHT22;30781;48.154;11.554;2022-08-01T03:21:39;21.60;62.70
7688;DHT22;30781;48.154;11.554;2022-08-01T03:24:08;21.60;62.80
7688;DHT22;30781;48.154;11.554;2022-08-01T03:26:38;21.60;62.90
7688;DHT22;30781;48.154;11.554;2022-08-01T03:29:08;21.50;62.70
7688;DHT22;30781;48.154;11.554;2022-08-01T03:31:39;21.50;62.90
7688;DHT22;30781;48.154;11.554;2022-08-01T03:34:09;21.50;62.90
7688;DHT22;30781;48.154;11.554;2022-08-01T03:36:40;21.50;62.90
7688;DHT22;30781;48.154;11.554;2022-08-01T03:39:09;21.50;63.20
7688;DHT22;30781;48.154;11.554;2022-08-01T03:41:41;21.40;63.20
7688;DHT22;30781;48.154;11.554;2022-08-01T03:44:12;21.40;63.30
7688;DHT22;30781;48.154;11.554;2022-08-01T03:46:43;21.30;63.60
7688;DHT22;30781;48.154;11.554;2022-08-01T03:49:15;21.30;63.60
7688;DHT22;30781;48.154;11.554;2022-08-01T03:51:44;21.30;63.80
7688;DHT22;30781;48.154;11.554;2022-08-01T03:54:14;21.30;64.10
7688;DHT22;30781;48.154;11.554;2022-08-01T03:56:42;21.20;64.00
7688;DHT22;30781;48.154;11.554;2022-08-01T03:59:10;21.20;64.20
7688;DHT22;30781;48.154;11.554;2022-08-01T04:01:37;21.20;64.40
7688;DHT22;30781;48.154;11.554;2022-08-01T04:04:06;21.20;64.40
7688;DHT22;30781;48.154;11.554;2022-08-01T04:06:33;21.10;64.50
7688;DHT22;30781;48.154;11.554;2022-08-01T04:09:03;21.10;64.70
7688;DHT22;30781;48.154;11.554;2022-08-01T04:11:30;21.10;64.90
7688;DHT22;30781;48.154;11.554;2022-08-01T04:13:58;21.10;64.90
7688;DHT22;30781;48.154;11.554;2022-08-01T04:16:25;21.10;65.00
7688;DHT22;30781;48.154;11.554;2022-08-01T04:18:52;21.10;65.00
7688;DHT22;30781;48.154;11.554;2022-08-01T04:21:24;21.00;65.10
7688;DHT22;30781;48.154;11.554;2022-08-01T04:23:53;21.10;65.20
7688;DHT22;30781;48.154;11.554;2022-08-01T04:26:22;21.10;65.30
7688;DHT22;30781;48.154;11.554;2022-08-01T04:28:59;21.10;65.30
7688;DHT22;30781;48.154;11.554;2022-08-01T04:32:00;21.10;65.20
7688;DHT22;30781;48.154;11.554;2022-08-01T04:34:30;21.10;65.20
7688;DHT22;30781;48.154;11.554;2022-08-01T04:37:00;21.20;65.20
7688;DHT22;30781;48.154;11.554;2022-08-01T04:39:31;21.20;65.10
7688;DHT22;30781;48.154;11.554;2022-08-01T04:41:59;21.20;65.10
7688;DHT22;30781;48.154;11.554;2022-08-01T04:44:29;21.20;66.00
7688;DHT22;30781;48.154;11.554;2022-08-01T04:46:58;21.30;64.90
7688;DHT22;30781;48.154;11.554;2022-08-01T04:49:26;21.40;64.80
7688;DHT22;30781;48.154;11.554;2022-08-01T04:51:55;21.50;64.70
7688;DHT22;30781;48.154;11.554;2022-08-01T04:54:25;21.50;64.40
7688;DHT22;30781;48.154;11.554;2022-08-01T04:56:52;21.60;64.30
7688;DHT22;30781;48.154;11.554;2022-08-01T04:59:21;21.70;63.90
7688;DHT22;30781;48.154;11.554;2022-08-01T05:02:07;21.80;63.80
7688;DHT22;30781;48.154;11.554;2022-08-01T05:04:35;21.90;63.60
7688;DHT22;30781;48.154;11.554;2022-08-01T05:07:03;22.10;63.40
7688;DHT22;30781;48.154;11.554;2022-08-01T05:09:32;22.20;63.00
7688;DHT22;30781;48.154;11.554;2022-08-01T05:11:59;22.30;62.50
7688;DHT22;30781;48.154;11.554;2022-08-01T05:14:27;22.40;62.20
7688;DHT22;30781;48.154;11.554;2022-08-01T05:16:57;22.60;62.00
7688;DHT22;30781;48.154;11.554;2022-08-01T05:19:24;22.60;61.60
7688;DHT22;30781;48.154;11.554;2022-08-01T05:21:52;22.70;61.40
7688;DHT22;30781;48.154;11.554;2022-08-01T05:24:19;22.90;61.00
7688;DHT22;30781;48.154;11.554;2022-08-01T05:26:49;23.00;60.80
7688;DHT22;30781;48.154;11.554;2022-08-01T05:29:16;23.00;60.60
7688;DHT22;30781;48.154;11.554;2022-08-01T05:31:43;23.10;60.20
7688;DHT22;30781;48.154;11.554;2022-08-01T05:34:10;23.20;60.10
7688;DHT22;30781;48.154;11.554;2022-08-01T05:36:38;23.30;59.90
7688;DHT22;30781;48.154;11.554;2022-08-01T05:39:05;23.50;59.80
7688;DHT22;30781;48.154;11.554;2022-08-01T05:41:32;23.60;59.50
7688;DHT22;30781;48.154;11.554;2022-08-01T05:44:01;23.80;59.30
7688;DHT22;30781;48.154;11.554;2022-08-01T05:46:28;23.90;59.10
7688;DHT22;30781;48.154;11.554;2022-08-01T05:48:56;24.00;58.90
7688;DHT22;30781;48.154;11.554;2022-08-01T05:51:23;24.10;58.60
7688;DHT22;30781;48.154;11.554;2022-08-01T05:53:50;24.20;58.40
7688;DHT22;30781;48.154;11.554;2022-08-01T05:56:18;24.20;58.20
7688;DHT22;30781;48.154;11.554;2022-08-01T05:58:46;24.00;58.00
7688;DHT22;30781;48.154;11.554;2022-08-01T06:01:14;24.00;58.30
7688;DHT22;30781;48.154;11.554;2022-08-01T06:03:41;23.90;58.50
7688;DHT22;30781;48.154;11.554;2022-08-01T06:06:08;23.80;58.60
7688;DHT22;30781;48.154;11.554;2022-08-01T06:08:36;23.70;58.60
7688;DHT22;30781;48.154;11.554;2022-08-01T06:11:03;23.60;58.70
7688;DHT22;30781;48.154;11.554;2022-08-01T06:13:30;23.50;58.60
7688;DHT22;30781;48.154;11.554;2022-08-01T06:15:57;23.50;58.90
7688;DHT22;30781;48.154;11.554;2022-08-01T06:18:26;23.40;59.00
7688;DHT22;30781;48.154;11.554;2022-08-01T06:20:53;23.40;59.70
7688;DHT22;30781;48.154;11.554;2022-08-01T06:23:20;23.60;59.30
7688;DHT22;30781;48.154;11.554;2022-08-01T06:25:47;24.20;58.60
7688;DHT22;30781;48.154;11.554;2022-08-01T06:28:14;25.10;57.70
7688;DHT22;30781;48.154;11.554;2022-08-01T06:30:41;26.20;56.10
7688;DHT22;30781;48.154;11.554;2022-08-01T06:33:09;27.30;54.10
7688;DHT22;30781;48.154;11.554;2022-08-01T06:35:37;28.30;52.40
7688;DHT22;30781;48.154;11.554;2022-08-01T06:38:04;29.30;50.50
7688;DHT22;30781;48.154;11.554;2022-08-01T06:40:32;30.20;47.90
7688;DHT22;30781;48.154;11.554;2022-08-01T06:42:59;30.90;46.70
7688;DHT22;30781;48.154;11.554;2022-08-01T06:45:26;31.60;45.10
7688;DHT22;30781;48.154;11.554;2022-08-01T06:47:53;32.30;43.50
7688;DHT22;30781;48.154;11.554;2022-08-01T06:50:20;32.90;42.60
7688;DHT22;30781;48.154;11.554;2022-08-01T06:52:49;33.50;41.60
7688;DHT22;30781;48.154;11.554;2022-08-01T06:55:16;33.90;40.00
7688;DHT22;30781;48.154;11.554;2022-08-01T06:57:47;34.30;39.30
7688;DHT22;30781;48.154;11.554;2022-08-01T07:00:15;34.60;38.20
7688;DHT22;30781;48.154;11.554;2022-08-01T07:02:44;34.80;37.80
7688;DHT22;30781;48.154;11.554;2022-08-01T07:05:12;35.00;37.80
7688;DHT22;30781;48.154;11.554;2022-08-01T07:07:39;35.40;37.10
7688;DHT22;30781;48.154;11.554;2022-08-01T07:10:08;35.90;36.70
7688;DHT22;30781;48.154;11.554;2022-08-01T07:12:36;36.40;35.50
7688;DHT22;30781;48.154;11.554;2022-08-01T07:15:04;36.90;34.60
7688;DHT22;30781;48.154;11.554;2022-08-01T07:17:31;37.20;33.80
7688;DHT22;30781;48.154;11.554;2022-08-01T07:19:59;37.50;33.70
7688;DHT22;30781;48.154;11.554;2022-08-01T07:22:26;37.50;33.20
7688;DHT22;30781;48.154;11.554;2022-08-01T07:24:53;37.50;32.70
7688;DHT22;30781;48.154;11.554;2022-08-01T07:27:21;37.40;33.00
7688;DHT22;30781;48.154;11.554;2022-08-01T07:29:48;37.40;33.00
7688;DHT22;30781;48.154;11.554;2022-08-01T07:32:15;37.40;32.90
7688;DHT22;30781;48.154;11.554;2022-08-01T07:34:43;37.40;32.70
7688;DHT22;30781;48.154;11.554;2022-08-01T07:37:10;37.40;32.50
7688;DHT22;30781;48.154;11.554;2022-08-01T07:39:37;37.30;32.90
7688;DHT22;30781;48.154;11.554;2022-08-01T07:42:04;37.40;32.80
7688;DHT22;30781;48.154;11.554;2022-08-01T07:44:33;37.60;32.50
7688;DHT22;30781;48.154;11.554;2022-08-01T07:47:00;37.80;32.10
7688;DHT22;30781;48.154;11.554;2022-08-01T07:49:27;37.90;32.20
7688;DHT22;30781;48.154;11.554;2022-08-01T07:51:54;37.80;32.10
7688;DHT22;30781;48.154;11.554;2022-08-01T07:54:21;37.90;32.00
7688;DHT22;30781;48.154;11.554;2022-08-01T07:56:49;37.90;31.90
7688;DHT22;30781;48.154;11.554;2022-08-01T07:59:17;38.10;31.50
7688;DHT22;30781;48.154;11.554;2022-08-01T08:01:50;38.30;31.20
7688;DHT22;30781;48.154;11.554;2022-08-01T08:04:17;38.60;31.00
7688;DHT22;30781;48.154;11.554;2022-08-01T08:06:44;38.80;30.90
7688;DHT22;30781;48.154;11.554;2022-08-01T08:09:13;39.00;30.30
7688;DHT22;30781;48.154;11.554;2022-08-01T08:11:42;39.10;30.40
7688;DHT22;30781;48.154;11.554;2022-08-01T08:14:10;39.10;30.00
7688;DHT22;30781;48.154;11.554;2022-08-01T08:16:37;38.90;30.40
7688;DHT22;30781;48.154;11.554;2022-08-01T08:19:05;38.70;30.90
7688;DHT22;30781;48.154;11.554;2022-08-01T08:21:33;38.70;30.80
7688;DHT22;30781;48.154;11.554;2022-08-01T08:24:00;38.70;30.80
7688;DHT22;30781;48.154;11.554;2022-08-01T08:26:44;38.90;30.90
7688;DHT22;30781;48.154;11.554;2022-08-01T08:29:12;39.00;30.40
7688;DHT22;30781;48.154;11.554;2022-08-01T08:31:39;39.00;30.20
7688;DHT22;30781;48.154;11.554;2022-08-01T08:34:07;38.80;30.50
7688;DHT22;30781;48.154;11.554;2022-08-01T08:36:34;38.60;30.60
7688;DHT22;30781;48.154;11.554;2022-08-01T08:39:02;38.40;31.00
7688;DHT22;30781;48.154;11.554;2022-08-01T08:41:29;38.20;31.70
7688;DHT22;30781;48.154;11.554;2022-08-01T08:43:57;38.10;31.60
7688;DHT22;30781;48.154;11.554;2022-08-01T08:46:27;38.10;31.20
7688;DHT22;30781;48.154;11.554;2022-08-01T08:48:55;38.00;31.20
7688;DHT22;30781;48.154;11.554;2022-08-01T08:51:26;37.90;31.50
7688;DHT22;30781;48.154;11.554;2022-08-01T08:53:55;38.00;31.60
7688;DHT22;30781;48.154;11.554;2022-08-01T08:56:24;38.30;31.30
7688;DHT22;30781;48.154;11.554;2022-08-01T08:58:51;38.50;30.80
7688;DHT22;30781;48.154;11.554;2022-08-01T09:01:19;38.70;30.40
7688;DHT22;30781;48.154;11.554;2022-08-01T09:03:46;38.80;30.30
7688;DHT22;30781;48.154;11.554;2022-08-01T09:06:14;38.80;30.40
7688;DHT22;30781;48.154;11.554;2022-08-01T09:08:42;38.70;30.30
7688;DHT22;30781;48.154;11.554;2022-08-01T09:11:09;38.70;30.40
7688;DHT22;30781;48.154;11.554;2022-08-01T09:13:37;38.60;30.30
7688;DHT22;30781;48.154;11.554;2022-08-01T09:16:04;38.40;30.60
7688;DHT22;30781;48.154;11.554;2022-08-01T09:18:33;38.20;30.90
7688;DHT22;30781;48.154;11.554;2022-08-01T09:21:15;38.20;30.70
7688;DHT22;30781;48.154;11.554;2022-08-01T09:23:46;38.00;30.80
7688;DHT22;30781;48.154;11.554;2022-08-01T09:26:15;37.80;30.70
7688;DHT22;30781;48.154;11.554;2022-08-01T09:28:44;37.60;31.60
7688;DHT22;30781;48.154;11.554;2022-08-01T09:31:12;37.40;31.70
7688;DHT22;30781;48.154;11.554;2022-08-01T09:33:51;37.10;32.30
7688;DHT22;30781;48.154;11.554;2022-08-01T09:36:19;36.50;33.20
7688;DHT22;30781;48.154;11.554;2022-08-01T09:38:48;35.80;34.20
7688;DHT22;30781;48.154;11.554;2022-08-01T09:41:16;35.10;34.20
7688;DHT22;30781;48.154;11.554;2022-08-01T09:43:48;34.30;35.50
7688;DHT22;30781;48.154;11.554;2022-08-01T09:46:16;33.60;36.10
7688;DHT22;30781;48.154;11.554;2022-08-01T09:48:55;33.00;36.80
7688;DHT22;30781;48.154;11.554;2022-08-01T09:51:34;32.40;38.10
7688;DHT22;30781;48.154;11.554;2022-08-01T09:54:05;31.80;39.50
7688;DHT22;30781;48.154;11.554;2022-08-01T09:56:39;31.40;40.20
7688;DHT22;30781;48.154;11.554;2022-08-01T09:59:08;31.10;40.50
7688;DHT22;30781;48.154;11.554;2022-08-01T10:01:45;30.80;41.10
7688;DHT22;30781;48.154;11.554;2022-08-01T10:04:13;30.60;41.70
7688;DHT22;30781;48.154;11.554;2022-08-01T10:06:42;30.30;42.50
7688;DHT22;30781;48.154;11.554;2022-08-01T10:09:13;30.10;42.70
7688;DHT22;30781;48.154;11.554;2022-08-01T10:11:41;29.90;43.30
7688;DHT22;30781;48.154;11.554;2022-08-01T10:14:08;29.70;43.90
7688;DHT22;30781;48.154;11.554;2022-08-01T10:16:38;29.60;44.10
7688;DHT22;30781;48.154;11.554;2022-08-01T10:19:06;29.50;44.60
7688;DHT22;30781;48.154;11.554;2022-08-01T10:21:34;29.40;44.90
7688;DHT22;30781;48.154;11.554;2022-08-01T10:24:05;29.30;44.50
7688;DHT22;30781;48.154;11.554;2022-08-01T10:26:34;29.30;44.70
7688;DHT22;30781;48.154;11.554;2022-08-01T10:29:02;29.30;44.70
7688;DHT22;30781;48.154;11.554;2022-08-01T10:31:31;29.30;45.00
7688;DHT22;30781;48.154;11.554;2022-08-01T10:33:59;29.20;45.00
7688;DHT22;30781;48.154;11.554;2022-08-01T10:36:27;29.10;45.10
7688;DHT22;30781;48.154;11.554;2022-08-01T10:38:56;29.20;45.50
7688;DHT22;30781;48.154;11.554;2022-08-01T10:41:24;29.20;45.20
7688;DHT22;30781;48.154;11.554;2022-08-01T10:43:53;29.20;44.80
7688;DHT22;30781;48.154;11.554;2022-08-01T10:46:21;29.30;45.20
7688;DHT22;30781;48.154;11.554;2022-08-01T10:48:55;29.30;44.80
7688;DHT22;30781;48.154;11.554;2022-08-01T10:51:24;29.40;44.90
7688;DHT22;30781;48.154;11.554;2022-08-01T10:53:53;29.40;44.80
7688;DHT22;30781;48.154;11.554;2022-08-01T10:56:21;29.50;44.60
7688;DHT22;30781;48.154;11.554;2022-08-01T10:58:49;29.40;44.80
7688;DHT22;30781;48.154;11.554;2022-08-01T11:01:20;29.40;44.70
7688;DHT22;30781;48.154;11.554;2022-08-01T11:04:12;29.40;44.90
7688;DHT22;30781;48.154;11.554;2022-08-01T11:06:52;29.50;44.80
7688;DHT22;30781;48.154;11.554;2022-08-01T11:09:26;29.40;44.90
7688;DHT22;30781;48.154;11.554;2022-08-01T11:11:59;29.40;44.90
7688;DHT22;30781;48.154;11.554;2022-08-01T11:14:28;29.40;44.80
7688;DHT22;30781;48.154;11.554;2022-08-01T11:16:56;29.30;44.70
7688;DHT22;30781;48.154;11.554;2022-08-01T11:20:05;29.30;45.00
7688;DHT22;30781;48.154;11.554;2022-08-01T11:26:09;29.30;44.80
7688;DHT22;30781;48.154;11.554;2022-08-01T11:28:37;29.30;45.20
7688;DHT22;30781;48.154;11.554;2022-08-01T11:31:32;29.30;44.60
7688;DHT22;30781;48.154;11.554;2022-08-01T11:34:00;29.40;44.10
7688;DHT22;30781;48.154;11.554;2022-08-01T11:36:28;29.30;43.80
7688;DHT22;30781;48.154;11.554;2022-08-01T11:39:16;29.30;44.20
7688;DHT22;30781;48.154;11.554;2022-08-01T11:41:45;29.40;43.70
7688;DHT22;30781;48.154;11.554;2022-08-01T11:44:15;29.40;43.70
7688;DHT22;30781;48.154;11.554;2022-08-01T11:46:49;29.50;43.60
7688;DHT22;30781;48.154;11.554;2022-08-01T11:49:30;29.60;43.50
7688;DHT22;30781;48.154;11.554;2022-08-01T11:52:00;29.70;43.70
7688;DHT22;30781;48.154;11.554;2022-08-01T11:54:28;29.70;44.10
7688;DHT22;30781;48.154;11.554;2022-08-01T11:56:57;29.70;43.70
7688;DHT22;30781;48.154;11.554;2022-08-01T11:59:24;29.60;43.60
7688;DHT22;30781;48.154;11.554;2022-08-01T12:01:51;29.60;43.30
7688;DHT22;30781;48.154;11.554;2022-08-01T12:04:19;29.60;43.70
7688;DHT22;30781;48.154;11.554;2022-08-01T12:06:51;29.70;43.00
7688;DHT22;30781;48.154;11.554;2022-08-01T12:09:19;29.90;42.90
7688;DHT22;30781;48.154;11.554;2022-08-01T12:11:47;30.00;42.10
7688;DHT22;30781;48.154;11.554;2022-08-01T12:14:20;30.10;41.80
7688;DHT22;30781;48.154;11.554;2022-08-01T12:16:54;30.20;41.70
7688;DHT22;30781;48.154;11.554;2022-08-01T12:19:22;30.30;41.20
7688;DHT22;30781;48.154;11.554;2022-08-01T12:22:07;30.50;41.20
7688;DHT22;30781;48.154;11.554;2022-08-01T12:24:36;30.60;41.00
7688;DHT22;30781;48.154;11.554;2022-08-01T12:27:03;30.60;40.90
7688;DHT22;30781;48.154;11.554;2022-08-01T12:29:35;30.60;40.70
7688;DHT22;30781;48.154;11.554;2022-08-01T12:32:02;30.60;40.10
7688;DHT22;30781;48.154;11.554;2022-08-01T12:34:30;30.60;40.20
7688;DHT22;30781;48.154;11.554;2022-08-01T12:37:00;30.60;40.00
7688;DHT22;30781;48.154;11.554;2022-08-01T12:39:35;30.60;39.80
7688;DHT22;30781;48.154;11.554;2022-08-01T12:42:06;30.70;40.40
7688;DHT22;30781;48.154;11.554;2022-08-01T12:44:34;30.80;40.50
7688;DHT22;30781;48.154;11.554;2022-08-01T12:47:02;30.90;40.00
7688;DHT22;30781;48.154;11.554;2022-08-01T12:49:31;31.00;39.60
7688;DHT22;30781;48.154;11.554;2022-08-01T12:51:59;31.10;39.40
7688;DHT22;30781;48.154;11.554;2022-08-01T12:54:27;31.20;39.50
7688;DHT22;30781;48.154;11.554;2022-08-01T12:56:55;31.30;38.80
7688;DHT22;30781;48.154;11.554;2022-08-01T12:59:24;31.50;38.20
7688;DHT22;30781;48.154;11.554;2022-08-01T13:01:52;31.60;38.10
7688;DHT22;30781;48.154;11.554;2022-08-01T13:04:20;31.70;37.40
7688;DHT22;30781;48.154;11.554;2022-08-01T13:06:47;31.60;37.40
7688;DHT22;30781;48.154;11.554;2022-08-01T13:09:15;31.60;37.70
7688;DHT22;30781;48.154;11.554;2022-08-01T13:11:42;31.50;37.60
7688;DHT22;30781;48.154;11.554;2022-08-01T13:14:26;31.40;37.70
7688;DHT22;30781;48.154;11.554;2022-08-01T13:16:54;31.20;38.10
7688;DHT22;30781;48.154;11.554;2022-08-01T13:19:21;31.00;38.50
7688;DHT22;30781;48.154;11.554;2022-08-01T13:22:07;30.80;40.30
7688;DHT22;30781;48.154;11.554;2022-08-01T13:24:34;30.50;42.80
7688;DHT22;30781;48.154;11.554;2022-08-01T13:27:03;30.20;46.60
7688;DHT22;30781;48.154;11.554;2022-08-01T13:29:32;29.90;45.90
7688;DHT22;30781;48.154;11.554;2022-08-01T13:32:00;29.70;45.00
7688;DHT22;30781;48.154;11.554;2022-08-01T13:34:38;29.60;46.00
7688;DHT22;30781;48.154;11.554;2022-08-01T13:37:05;29.50;46.60
7688;DHT22;30781;48.154;11.554;2022-08-01T13:39:32;29.40;45.80
7688;DHT22;30781;48.154;11.554;2022-08-01T13:42:10;29.30;45.40
7688;DHT22;30781;48.154;11.554;2022-08-01T13:44:38;29.10;45.20
7688;DHT22;30781;48.154;11.554;2022-08-01T13:47:07;29.10;43.90
7688;DHT22;30781;48.154;11.554;2022-08-01T13:49:34;28.90;43.40
7688;DHT22;30781;48.154;11.554;2022-08-01T13:52:02;28.90;43.40
7688;DHT22;30781;48.154;11.554;2022-08-01T13:54:29;28.80;42.60
7688;DHT22;30781;48.154;11.554;2022-08-01T13:56:57;28.90;42.00
7688;DHT22;30781;48.154;11.554;2022-08-01T13:59:24;29.00;41.80
7688;DHT22;30781;48.154;11.554;2022-08-01T14:01:53;29.10;41.90
7688;DHT22;30781;48.154;11.554;2022-08-01T14:04:20;29.20;42.00
7688;DHT22;30781;48.154;11.554;2022-08-01T14:06:47;29.20;42.10
7688;DHT22;30781;48.154;11.554;2022-08-01T14:09:14;29.30;42.20
7688;DHT22;30781;48.154;11.554;2022-08-01T14:11:45;29.20;42.10
7688;DHT22;30781;48.154;11.554;2022-08-01T14:14:12;29.20;42.10
7688;DHT22;30781;48.154;11.554;2022-08-01T14:16:40;29.20;42.70
7688;DHT22;30781;48.154;11.554;2022-08-01T14:19:08;29.10;44.10
7688;DHT22;30781;48.154;11.554;2022-08-01T14:21:35;29.10;46.90
7688;DHT22;30781;48.154;11.554;2022-08-01T14:24:02;29.10;47.40
7688;DHT22;30781;48.154;11.554;2022-08-01T14:26:29;29.00;46.30
7688;DHT22;30781;48.154;11.554;2022-08-01T14:28:56;29.00;46.70
7688;DHT22;30781;48.154;11.554;2022-08-01T14:31:23;29.00;47.50
7688;DHT22;30781;48.154;11.554;2022-08-01T14:33:50;29.00;48.20
7688;DHT22;30781;48.154;11.554;2022-08-01T14:36:19;29.20;48.20
7688;DHT22;30781;48.154;11.554;2022-08-01T14:38:46;29.20;48.30
7688;DHT22;30781;48.154;11.554;2022-08-01T14:41:13;29.20;47.80
7688;DHT22;30781;48.154;11.554;2022-08-01T14:43:40;29.20;47.70
7688;DHT22;30781;48.154;11.554;2022-08-01T14:46:07;29.30;47.40
7688;DHT22;30781;48.154;11.554;2022-08-01T14:48:35;29.40;47.70
7688;DHT22;30781;48.154;11.554;2022-08-01T14:51:02;29.40;47.50
7688;DHT22;30781;48.154;11.554;2022-08-01T14:53:31;29.40;47.10
7688;DHT22;30781;48.154;11.554;2022-08-01T14:55:59;29.40;47.00
7688;DHT22;30781;48.154;11.554;2022-08-01T14:58:26;29.30;47.00
7688;DHT22;30781;48.154;11.554;2022-08-01T15:00:53;29.30;47.30
7688;DHT22;30781;48.154;11.554;2022-08-01T15:03:20;29.20;47.40
7688;DHT22;30781;48.154;11.554;2022-08-01T15:05:47;29.10;47.70
7688;DHT22;30781;48.154;11.554;2022-08-01T15:08:14;29.00;47.70
7688;DHT22;30781;48.154;11.554;2022-08-01T15:10:51;28.90;47.90
7688;DHT22;30781;48.154;11.554;2022-08-01T15:13:18;28.80;48.40
7688;DHT22;30781;48.154;11.554;2022-08-01T15:15:45;28.70;49.80
7688;DHT22;30781;48.154;11.554;2022-08-01T15:18:12;28.50;50.60
7688;DHT22;30781;48.154;11.554;2022-08-01T15:20:40;28.40;50.90
7688;DHT22;30781;48.154;11.554;2022-08-01T15:23:07;28.20;50.10
7688;DHT22;30781;48.154;11.554;2022-08-01T15:25:36;28.10;50.20
7688;DHT22;30781;48.154;11.554;2022-08-01T15:28:05;27.80;50.50
7688;DHT22;30781;48.154;11.554;2022-08-01T15:30:33;27.60;52.80
7688;DHT22;30781;48.154;11.554;2022-08-01T15:33:01;27.30;55.20
7688;DHT22;30781;48.154;11.554;2022-08-01T15:35:28;26.80;56.80
7688;DHT22;30781;48.154;11.554;2022-08-01T15:37:56;26.30;57.70
7688;DHT22;30781;48.154;11.554;2022-08-01T15:40:23;25.90;59.00
7688;DHT22;30781;48.154;11.554;2022-08-01T15:42:50;25.60;59.90
7688;DHT22;30781;48.154;11.554;2022-08-01T15:45:19;25.50;60.50
7688;DHT22;30781;48.154;11.554;2022-08-01T15:47:47;25.40;61.30